createdAt,value
2023-11-24T00:02:10.718Z,0.05
2023-11-24T00:04:38.567Z,-0.08
2023-11-24T00:07:05.163Z,0.06
2023-11-24T00:09:31.944Z,0.48
2023-11-24T00:12:01.553Z,0.36
2023-11-24T00:14:28.636Z,0.21
2023-11-24T00:16:55.434Z,0.42
2023-11-24T00:19:22.143Z,0.36
2023-11-24T00:21:49.007Z,0.21
2023-11-24T00:24:15.773Z,0.71
2023-11-24T00:26:42.385Z,0.54
2023-11-24T00:29:09.202Z,0.89
2023-11-24T00:31:37.974Z,1.04
2023-11-24T00:34:04.767Z,0.92
2023-11-24T00:36:31.538Z,0.87
2023-11-24T00:38:58.233Z,0.82
2023-11-24T00:41:24.909Z,1.12
2023-11-24T00:43:51.620Z,1.09
2023-11-24T00:46:18.645Z,0.73
2023-11-24T00:48:45.821Z,1.05
2023-11-24T00:51:12.490Z,1.11
2023-11-24T00:53:39.351Z,1.02
2023-11-24T00:56:06.424Z,0.99
2023-11-24T00:58:33.081Z,1.13
2023-11-24T01:01:03.186Z,1.23
2023-11-24T01:03:29.910Z,1.24
2023-11-24T01:05:56.944Z,1.21
2023-11-24T01:08:23.626Z,1.03
2023-11-24T01:10:50.391Z,1.27
2023-11-24T01:13:17.852Z,1.24
2023-11-24T01:15:44.719Z,1.12
2023-11-24T01:18:11.509Z,0.91
2023-11-24T01:20:38.193Z,0.79
2023-11-24T01:23:07.653Z,1.24
2023-11-24T01:25:34.570Z,1.13
2023-11-24T01:28:02.493Z,0.80
2023-11-24T01:30:29.275Z,0.79
2023-11-24T01:32:56.090Z,0.86
2023-11-24T01:35:22.903Z,0.72
2023-11-24T01:37:49.619Z,0.74
2023-11-24T01:40:19.275Z,0.88
2023-11-24T01:42:45.961Z,0.76
2023-11-24T01:45:12.762Z,1.01
2023-11-24T01:47:39.836Z,0.93
2023-11-24T01:50:08.827Z,1.02
2023-11-24T01:52:36.145Z,0.91
2023-11-24T01:55:05.657Z,1.27
2023-11-24T01:57:33.195Z,1.31
2023-11-24T02:00:01.181Z,1.50
2023-11-24T02:02:30.209Z,1.53
2023-11-24T02:04:57.085Z,1.02
2023-11-24T02:07:24.318Z,1.12
2023-11-24T02:09:51.412Z,1.31
2023-11-24T02:12:18.294Z,0.94
2023-11-24T02:14:45.026Z,0.81
2023-11-24T02:17:11.894Z,1.00
2023-11-24T02:19:38.602Z,0.67
2023-11-24T02:22:07.837Z,0.92
2023-11-24T02:24:34.416Z,1.03
2023-11-24T02:27:01.026Z,0.81
2023-11-24T02:29:27.724Z,0.86
2023-11-24T02:31:55.139Z,0.82
2023-11-24T02:34:21.926Z,0.86
2023-11-24T02:36:48.820Z,0.86
2023-11-24T02:39:16.451Z,1.02
2023-11-24T02:41:43.397Z,0.94
2023-11-24T02:44:10.069Z,1.14
2023-11-24T02:46:36.723Z,0.84
2023-11-24T02:49:03.513Z,1.10
2023-11-24T02:51:30.192Z,1.07
2023-11-24T02:53:57.648Z,1.29
2023-11-24T02:56:24.380Z,1.68
2023-11-24T02:58:50.992Z,1.75
2023-11-24T03:01:17.590Z,1.52
2023-11-24T03:03:44.720Z,1.41
2023-11-24T03:06:14.094Z,1.18
2023-11-24T03:08:41.006Z,1.08
2023-11-24T03:11:08.342Z,0.83
2023-11-24T03:13:35.526Z,0.73
2023-11-24T03:16:07.755Z,0.71
2023-11-24T03:18:34.897Z,0.40
2023-11-24T03:21:01.990Z,0.41
2023-11-24T03:23:28.868Z,0.37
2023-11-24T03:25:57.242Z,0.09
2023-11-24T03:28:24.956Z,0.43
2023-11-24T03:30:51.614Z,0.21
2023-11-24T03:33:18.339Z,0.61
2023-11-24T03:35:45.023Z,0.48
2023-11-24T03:38:12.334Z,0.47
2023-11-24T03:40:38.975Z,0.15
2023-11-24T03:43:05.720Z,0.24
2023-11-24T03:45:32.470Z,0.05
2023-11-24T03:47:59.130Z,0.26
2023-11-24T03:50:25.843Z,-0.09
2023-11-24T03:52:52.735Z,-0.26
2023-11-24T03:55:19.399Z,-0.45
2023-11-24T03:57:47.190Z,-0.48
2023-11-24T04:00:14.883Z,-0.36
2023-11-24T04:02:42.758Z,0.01
2023-11-24T04:05:12.052Z,-0.46
2023-11-24T04:07:39.909Z,-0.32
2023-11-24T04:10:08.460Z,-0.37
2023-11-24T04:12:35.311Z,-0.59
2023-11-24T04:15:04.746Z,-0.27
2023-11-24T04:17:33.377Z,-0.68
2023-11-24T04:20:00.002Z,-0.72
2023-11-24T04:22:26.720Z,-0.66
2023-11-24T04:24:54.206Z,-0.67
2023-11-24T04:27:20.908Z,-0.55
2023-11-24T04:29:47.596Z,-0.55
2023-11-24T04:32:14.219Z,-0.48
2023-11-24T04:34:40.897Z,-0.61
2023-11-24T04:37:07.779Z,-0.42
2023-11-24T04:39:34.558Z,-0.55
2023-11-24T04:42:01.302Z,-0.55
2023-11-24T04:44:27.976Z,-0.56
2023-11-24T04:46:54.686Z,-0.66
2023-11-24T04:49:23.360Z,-1.07
2023-11-24T04:51:50.071Z,-0.56
2023-11-24T04:54:16.805Z,-0.27
2023-11-24T04:56:43.497Z,-0.30
2023-11-24T04:59:10.310Z,0.07
2023-11-24T05:01:37.147Z,-0.16
2023-11-24T05:04:04.297Z,-0.47
2023-11-24T05:06:31.082Z,-0.09
2023-11-24T05:08:57.790Z,-0.02
2023-11-24T05:11:24.394Z,0.06
2023-11-24T05:13:51.007Z,-0.31
2023-11-24T05:16:18.065Z,-0.08
2023-11-24T05:18:44.963Z,-0.24
2023-11-24T05:21:11.530Z,-0.03
2023-11-24T05:23:38.247Z,0.18
2023-11-24T05:26:05.102Z,0.22
2023-11-24T05:28:31.896Z,0.09
2023-11-24T05:30:59.394Z,0.24
2023-11-24T05:33:26.094Z,0.15
2023-11-24T05:35:52.768Z,0.05
2023-11-24T05:38:19.409Z,0.08
2023-11-24T05:40:46.813Z,0.52
2023-11-24T05:43:13.501Z,0.35
2023-11-24T05:45:40.189Z,0.43
2023-11-24T05:48:07.378Z,0.46
2023-11-24T05:50:34.425Z,0.52
2023-11-24T05:53:01.180Z,0.51
2023-11-24T05:55:27.793Z,0.71
2023-11-24T05:57:54.473Z,0.71
2023-11-24T06:00:21.111Z,0.61
2023-11-24T06:02:47.930Z,0.55
2023-11-24T06:05:17.041Z,0.47
2023-11-24T06:07:44.010Z,0.45
2023-11-24T06:10:11.079Z,0.44
2023-11-24T06:12:38.286Z,0.43
2023-11-24T06:15:05.964Z,0.30
2023-11-24T06:17:33.493Z,0.32
2023-11-24T06:20:00.338Z,0.17
2023-11-24T06:22:27.042Z,0.01
2023-11-24T06:24:54.952Z,0.47
2023-11-24T06:27:21.810Z,0.30
2023-11-24T06:29:49.027Z,0.64
2023-11-24T06:32:15.714Z,1.08
2023-11-24T06:34:43.003Z,0.64
2023-11-24T06:37:09.691Z,0.88
2023-11-24T06:39:36.646Z,1.02
2023-11-24T06:42:05.564Z,0.68
2023-11-24T06:44:32.609Z,0.60
2023-11-24T06:47:01.282Z,0.62
2023-11-24T06:49:30.754Z,0.60
2023-11-24T06:51:57.914Z,0.19
2023-11-24T06:54:24.697Z,0.14
2023-11-24T06:56:51.406Z,0.46
2023-11-24T06:59:18.663Z,0.66
2023-11-24T07:01:45.379Z,0.67
2023-11-24T07:04:12.304Z,0.71
2023-11-24T07:06:39.186Z,0.82
2023-11-24T07:09:06.313Z,1.00
2023-11-24T07:11:33.056Z,1.05
2023-11-24T07:13:59.766Z,1.98
2023-11-24T07:16:27.029Z,2.84
2023-11-24T07:18:53.934Z,3.72
2023-11-24T07:21:20.795Z,3.27
2023-11-24T07:23:47.402Z,3.37
2023-11-24T07:26:18.178Z,3.80
2023-11-24T07:28:45.292Z,3.40
2023-11-24T07:31:16.004Z,4.21
2023-11-24T07:33:42.736Z,5.08
2023-11-24T07:36:10.283Z,5.57
2023-11-24T07:38:37.625Z,5.81
2023-11-24T07:41:05.867Z,6.42
2023-11-24T07:43:35.513Z,7.19
2023-11-24T07:46:07.637Z,7.51
2023-11-24T07:48:35.261Z,8.01
2023-11-24T07:51:02.755Z,7.82
2023-11-24T07:53:29.522Z,5.81
2023-11-24T07:55:56.332Z,5.44
2023-11-24T07:58:23.320Z,7.63
2023-11-24T08:00:50.135Z,7.26
2023-11-24T08:03:18.336Z,5.41
2023-11-24T08:05:45.410Z,7.90
2023-11-24T08:08:12.068Z,9.10
2023-11-24T08:10:38.886Z,9.44
2023-11-24T08:13:05.672Z,10.58
2023-11-24T08:15:32.385Z,8.95
2023-11-24T08:17:59.121Z,8.58
2023-11-24T08:20:25.862Z,10.15
2023-11-24T08:22:52.515Z,10.90
2023-11-24T08:25:19.746Z,12.39
2023-11-24T08:27:48.106Z,13.50
2023-11-24T08:30:15.177Z,13.75
2023-11-24T08:32:45.557Z,12.92
2023-11-24T08:35:13.832Z,12.55
2023-11-24T08:37:40.599Z,12.24
2023-11-24T08:40:12.219Z,12.92
2023-11-24T08:42:39.817Z,13.13
2023-11-24T08:45:07.834Z,14.01
2023-11-24T08:47:34.570Z,14.30
2023-11-24T08:50:01.398Z,15.33
2023-11-24T08:52:28.017Z,15.49
2023-11-24T08:54:54.683Z,15.81
2023-11-24T08:57:21.287Z,15.47
2023-11-24T08:59:47.935Z,15.50
2023-11-24T09:02:14.728Z,16.34
2023-11-24T09:04:41.466Z,16.55
2023-11-24T09:07:10.005Z,16.97
2023-11-24T09:09:37.758Z,17.54
2023-11-24T09:12:06.702Z,17.88
2023-11-24T09:14:39.404Z,18.04
2023-11-24T09:17:06.125Z,17.05
2023-11-24T09:19:35.192Z,17.57
2023-11-24T09:22:04.869Z,18.05
2023-11-24T09:24:31.554Z,17.23
2023-11-24T09:26:58.195Z,14.30
2023-11-24T09:29:24.837Z,14.46
2023-11-24T09:31:52.026Z,13.62
2023-11-24T09:34:18.763Z,12.90
2023-11-24T09:36:47.366Z,11.34
2023-11-24T09:39:21.910Z,13.31
2023-11-24T09:41:52.364Z,11.41
2023-11-24T09:44:19.745Z,12.70
2023-11-24T09:46:51.858Z,13.76
2023-11-24T09:49:23.985Z,14.38
2023-11-24T09:51:50.694Z,14.84
2023-11-24T09:54:19.122Z,15.41
2023-11-24T09:56:45.963Z,15.90
2023-11-24T09:59:14.631Z,16.13
2023-11-24T10:01:41.355Z,16.75
2023-11-24T10:04:08.089Z,16.60
2023-11-24T10:06:38.348Z,16.34
2023-11-24T10:09:06.749Z,16.02
2023-11-24T10:11:36.768Z,16.05
2023-11-24T10:14:07.133Z,15.95
2023-11-24T10:16:34.201Z,16.12
2023-11-24T10:19:01.794Z,16.07
2023-11-24T10:21:33.187Z,16.70
2023-11-24T10:24:02.173Z,16.21
2023-11-24T10:26:29.208Z,16.44
2023-11-24T10:28:56.785Z,16.41
2023-11-24T10:31:23.739Z,15.50
2023-11-24T10:33:50.924Z,16.28
2023-11-24T10:36:19.291Z,16.11
2023-11-24T10:38:47.951Z,15.68
2023-11-24T10:41:24.407Z,15.98
2023-11-24T10:43:52.479Z,16.15
2023-11-24T10:46:21.971Z,15.70
2023-11-24T10:49:24.562Z,16.02
2023-11-24T10:52:00.630Z,16.35
2023-11-24T10:54:39.900Z,16.19
2023-11-24T10:57:07.585Z,15.74
2023-11-24T10:59:37.321Z,15.69
2023-11-24T11:02:08.153Z,15.11
2023-11-24T11:04:37.087Z,15.50
2023-11-24T11:07:17.128Z,15.61
2023-11-24T11:09:52.501Z,15.34
2023-11-24T11:12:32.201Z,15.44
2023-11-24T11:14:59.960Z,15.00
2023-11-24T11:17:27.663Z,14.71
2023-11-24T11:20:08.399Z,14.52
2023-11-24T11:22:38.003Z,14.07
2023-11-24T11:25:14.418Z,13.88
2023-11-24T11:27:46.532Z,13.61
2023-11-24T11:30:20.187Z,13.40
2023-11-24T11:32:47.891Z,13.59
2023-11-24T11:35:15.258Z,13.59
2023-11-24T11:37:42.636Z,13.60
2023-11-24T11:40:13.731Z,13.44
2023-11-24T11:42:53.555Z,13.61
2023-11-24T11:45:25.830Z,13.61
2023-11-24T11:47:53.141Z,13.57
2023-11-24T11:50:25.556Z,13.38
2023-11-24T11:52:55.753Z,13.50
2023-11-24T11:55:25.180Z,13.22
2023-11-24T11:57:57.012Z,13.42
2023-11-24T12:00:31.023Z,13.20
2023-11-24T12:02:59.512Z,13.03
2023-11-24T12:05:29.650Z,12.98
2023-11-24T12:07:59.294Z,13.00
2023-11-24T12:10:30.574Z,13.03
2023-11-24T12:12:59.750Z,12.92
2023-11-24T12:15:26.507Z,12.55
2023-11-24T12:17:58.208Z,12.96
2023-11-24T12:20:25.663Z,12.92
2023-11-24T12:22:53.554Z,12.98
2023-11-24T12:25:22.396Z,13.03
2023-11-24T12:27:49.438Z,12.62
2023-11-24T12:30:16.302Z,12.60
2023-11-24T12:32:44.129Z,12.99
2023-11-24T12:35:10.897Z,13.02
2023-11-24T12:37:42.061Z,13.07
2023-11-24T12:40:10.735Z,12.84
2023-11-24T12:42:38.965Z,13.06
2023-11-24T12:45:09.691Z,13.01
2023-11-24T12:50:11.767Z,12.75
2023-11-24T12:52:40.391Z,12.94
2023-11-24T12:55:10.059Z,13.05
2023-11-24T12:57:37.732Z,13.36
2023-11-24T13:00:14.716Z,13.15
2023-11-24T13:02:42.607Z,13.20
2023-11-24T13:05:10.616Z,13.23
2023-11-24T13:07:38.897Z,13.29
2023-11-24T13:10:10.823Z,13.36
2023-11-24T13:12:41.728Z,13.21
2023-11-24T13:15:10.450Z,13.61
2023-11-24T13:17:37.558Z,13.54
2023-11-24T13:20:05.056Z,13.63
2023-11-24T13:22:34.989Z,13.61
2023-11-24T13:25:02.306Z,13.34
2023-11-24T13:27:30.285Z,13.03
2023-11-24T13:29:57.925Z,13.10
2023-11-24T13:32:24.674Z,13.48
2023-11-24T13:34:51.495Z,13.54
2023-11-24T13:37:19.028Z,13.24
2023-11-24T13:39:46.806Z,13.23
2023-11-24T13:42:17.904Z,13.35
2023-11-24T13:44:46.036Z,13.06
2023-11-24T13:47:14.119Z,13.05
2023-11-24T13:49:41.825Z,13.42
2023-11-24T13:52:11.007Z,13.39
2023-11-24T13:54:38.986Z,13.15
2023-11-24T13:57:05.616Z,13.26
2023-11-24T13:59:32.890Z,13.04
2023-11-24T14:01:59.921Z,13.07
2023-11-24T14:04:27.525Z,13.06
2023-11-24T14:06:54.713Z,13.06
2023-11-24T14:09:21.952Z,13.17
2023-11-24T14:11:50.589Z,12.99
2023-11-24T14:14:18.190Z,13.31
2023-11-24T14:16:49.516Z,13.38
2023-11-24T14:19:16.363Z,12.96
2023-11-24T14:21:47.902Z,12.91
2023-11-24T14:24:15.121Z,12.94
2023-11-24T14:26:45.755Z,13.12
2023-11-24T14:29:13.542Z,13.07
2023-11-24T14:31:41.139Z,12.86
2023-11-24T14:34:08.030Z,12.52
2023-11-24T14:36:38.369Z,12.84
2023-11-24T14:39:06.104Z,12.67
2023-11-24T14:41:32.637Z,12.99
2023-11-24T14:44:00.057Z,12.95
2023-11-24T14:46:30.569Z,12.90
2023-11-24T14:48:58.047Z,12.92
2023-11-24T14:51:27.676Z,12.82
2023-11-24T14:53:54.372Z,12.77
2023-11-24T14:56:21.004Z,12.55
2023-11-24T14:58:47.646Z,12.33
2023-11-24T15:01:20.677Z,12.45
2023-11-24T15:03:49.398Z,12.28
2023-11-24T15:06:16.800Z,12.02
2023-11-24T15:08:47.712Z,12.18
2023-11-24T15:11:16.585Z,12.26
2023-11-24T15:13:44.204Z,11.88
2023-11-24T15:16:20.339Z,11.97
2023-11-24T15:18:50.211Z,11.85
2023-11-24T15:21:29.745Z,11.43
2023-11-24T15:23:56.483Z,11.65
2023-11-24T15:26:26.183Z,11.54
2023-11-24T15:28:56.542Z,11.08
2023-11-24T15:31:27.834Z,10.94
2023-11-24T15:33:55.204Z,10.65
2023-11-24T15:36:28.286Z,10.71
2023-11-24T15:38:59.745Z,10.33
2023-11-24T15:41:38.501Z,10.04
2023-11-24T15:44:10.272Z,10.42
2023-11-24T15:46:39.450Z,9.63
2023-11-24T15:49:16.047Z,9.71
2023-11-24T15:51:46.931Z,9.89
2023-11-24T15:54:16.326Z,9.48
2023-11-24T15:56:44.605Z,9.86
2023-11-24T15:59:13.641Z,9.20
2023-11-24T16:01:43.883Z,9.32
2023-11-24T16:04:12.220Z,8.92
2023-11-24T16:06:42.010Z,9.02
2023-11-24T16:09:13.307Z,8.16
2023-11-24T16:11:46.823Z,8.30
2023-11-24T16:14:14.169Z,7.74
2023-11-24T16:16:46.878Z,7.68
2023-11-24T16:19:15.108Z,7.59
2023-11-24T16:21:43.065Z,8.59
2023-11-24T16:24:10.019Z,7.90
2023-11-24T16:26:36.625Z,7.63
2023-11-24T16:29:04.622Z,7.64
2023-11-24T16:31:34.813Z,7.09
2023-11-24T16:34:02.608Z,7.00
2023-11-24T16:36:29.589Z,7.21
2023-11-24T16:38:56.482Z,6.89
2023-11-24T16:41:23.111Z,6.75
2023-11-24T16:43:49.763Z,6.58
2023-11-24T16:46:16.410Z,6.69
2023-11-24T16:48:43.628Z,6.98
2023-11-24T16:51:10.787Z,6.47
2023-11-24T16:53:37.546Z,6.61
2023-11-24T16:56:04.449Z,7.13
2023-11-24T16:58:31.070Z,7.20
2023-11-24T17:00:57.682Z,7.54
2023-11-24T17:03:24.456Z,7.24
2023-11-24T17:05:51.228Z,7.01
2023-11-24T17:08:17.969Z,7.02
2023-11-24T17:10:46.313Z,6.83
2023-11-24T17:13:13.140Z,7.04
2023-11-24T17:15:39.971Z,6.55
2023-11-24T17:18:13.166Z,6.68
2023-11-24T17:20:40.612Z,7.17
2023-11-24T17:23:07.341Z,6.71
2023-11-24T17:25:37.115Z,7.32
2023-11-24T17:28:04.623Z,6.64
2023-11-24T17:30:31.275Z,6.95
2023-11-24T17:32:58.351Z,6.92
2023-11-24T17:35:25.582Z,6.21
2023-11-24T17:37:52.420Z,5.96
2023-11-24T17:40:22.782Z,6.07
2023-11-24T17:42:50.099Z,6.04
2023-11-24T17:45:17.185Z,5.97
2023-11-24T17:47:46.698Z,5.52
2023-11-24T17:50:15.122Z,5.82
2023-11-24T17:52:43.606Z,6.22
2023-11-24T17:55:10.818Z,6.73
2023-11-24T17:57:37.966Z,6.55
2023-11-24T18:00:14.406Z,6.54
2023-11-24T18:02:41.442Z,6.21
2023-11-24T18:05:08.385Z,6.53
2023-11-24T18:07:35.639Z,6.64
2023-11-24T18:10:03.947Z,6.48
2023-11-24T18:12:31.672Z,6.57
2023-11-24T18:14:58.386Z,6.84
2023-11-24T18:17:26.201Z,7.05
2023-11-24T18:19:55.905Z,6.75
2023-11-24T18:22:22.684Z,7.11
2023-11-24T18:24:49.455Z,6.94
2023-11-24T18:27:16.134Z,6.43
2023-11-24T18:29:43.072Z,7.00
2023-11-24T18:32:15.699Z,7.34
2023-11-24T18:34:42.340Z,7.74
2023-11-24T18:37:08.996Z,7.85
2023-11-24T18:39:35.865Z,7.98
2023-11-24T18:42:03.583Z,8.09
2023-11-24T18:44:30.338Z,7.97
2023-11-24T18:46:57.028Z,8.40
2023-11-24T18:49:25.045Z,7.78
2023-11-24T18:51:51.766Z,7.99
2023-11-24T18:54:18.609Z,7.79
2023-11-24T18:56:45.348Z,7.23
2023-11-24T18:59:13.802Z,7.54
2023-11-24T19:01:40.578Z,7.26
2023-11-24T19:04:08.388Z,8.07
2023-11-24T19:06:35.189Z,8.82
2023-11-24T19:09:01.976Z,10.40
2023-11-24T19:11:28.830Z,11.79
2023-11-24T19:13:56.073Z,12.18
2023-11-24T19:16:22.836Z,13.28
2023-11-24T19:18:49.599Z,13.39
2023-11-24T19:21:16.257Z,13.07
2023-11-24T19:23:42.969Z,13.04
2023-11-24T19:26:15.450Z,13.55
2023-11-24T19:28:55.854Z,13.34
2023-11-24T19:31:29.755Z,13.74
2023-11-24T19:33:57.652Z,13.97
2023-11-24T19:36:30.287Z,14.17
2023-11-24T19:38:57.043Z,14.19
2023-11-24T19:41:23.656Z,13.97
2023-11-24T19:43:51.021Z,14.14
2023-11-24T19:46:18.071Z,14.01
2023-11-24T19:48:44.808Z,13.78
2023-11-24T19:51:11.436Z,14.05
2023-11-24T19:53:38.056Z,13.87
2023-11-24T19:56:05.136Z,13.84
2023-11-24T19:58:31.875Z,13.94
2023-11-24T20:01:00.075Z,13.83
2023-11-24T20:03:26.889Z,13.50
2023-11-24T20:05:53.885Z,13.67
2023-11-24T20:08:20.760Z,13.59
2023-11-24T20:10:47.521Z,13.46
2023-11-24T20:13:14.373Z,13.51
2023-11-24T20:15:41.962Z,13.81
2023-11-24T20:18:09.925Z,13.82
2023-11-24T20:20:39.825Z,13.83
2023-11-24T20:23:09.784Z,13.70
2023-11-24T20:25:36.501Z,13.20
2023-11-24T20:28:03.324Z,13.08
2023-11-24T20:30:30.199Z,13.13
2023-11-24T20:32:57.462Z,12.90
2023-11-24T20:35:24.687Z,12.59
2023-11-24T20:37:52.568Z,13.03
2023-11-24T20:40:20.769Z,13.06
2023-11-24T20:42:48.539Z,12.57
2023-11-24T20:45:15.736Z,12.64
2023-11-24T20:47:43.102Z,11.68
2023-11-24T20:50:11.305Z,12.12
2023-11-24T20:52:38.058Z,12.02
2023-11-24T20:55:05.282Z,12.47
2023-11-24T20:57:31.956Z,12.25
2023-11-24T20:59:58.603Z,11.67
2023-11-24T21:02:25.405Z,11.05
2023-11-24T21:04:52.136Z,11.09
2023-11-24T21:07:20.213Z,11.10
2023-11-24T21:09:47.124Z,10.83
2023-11-24T21:12:13.816Z,11.02
2023-11-24T21:14:40.432Z,11.21
2023-11-24T21:17:07.418Z,12.29
2023-11-24T21:19:35.177Z,12.42
2023-11-24T21:22:01.963Z,12.72
2023-11-24T21:24:29.354Z,12.60
2023-11-24T21:26:55.974Z,12.43
2023-11-24T21:29:22.619Z,12.45
2023-11-24T21:31:49.916Z,12.51
2023-11-24T21:34:16.603Z,12.81
2023-11-24T21:36:43.312Z,13.04
2023-11-24T21:39:09.933Z,13.32
2023-11-24T21:41:37.909Z,13.14
2023-11-24T21:44:05.092Z,12.87
2023-11-24T21:46:31.793Z,12.09
2023-11-24T21:48:58.475Z,11.31
2023-11-24T21:51:25.202Z,11.75
2023-11-24T21:53:51.792Z,11.56
2023-11-24T21:56:26.238Z,11.18
2023-11-24T21:58:56.967Z,10.99
2023-11-24T22:01:27.373Z,11.51
2023-11-24T22:03:56.792Z,11.73
2023-11-24T22:06:25.870Z,11.71
2023-11-24T22:08:52.733Z,11.13
2023-11-24T22:11:19.405Z,11.65
2023-11-24T22:13:46.110Z,11.51
2023-11-24T22:16:12.866Z,11.76
2023-11-24T22:18:39.563Z,12.10
2023-11-24T22:21:08.513Z,12.02
2023-11-24T22:23:35.161Z,11.83
2023-11-24T22:26:02.154Z,11.89
2023-11-24T22:28:28.908Z,11.72
2023-11-24T22:30:55.759Z,10.93
2023-11-24T22:33:22.383Z,11.06
2023-11-24T22:35:48.999Z,10.81
2023-11-24T22:38:15.566Z,10.42
2023-11-24T22:40:43.844Z,10.12
2023-11-24T22:43:10.478Z,9.77
2023-11-24T22:45:37.936Z,9.74
2023-11-24T22:48:04.931Z,9.59
2023-11-24T22:50:31.601Z,10.04
2023-11-24T22:52:58.164Z,9.65
2023-11-24T22:55:24.790Z,9.35
2023-11-24T22:57:51.552Z,9.52
2023-11-24T23:00:36.175Z,10.18
2023-11-24T23:03:06.315Z,10.13
2023-11-24T23:05:33.015Z,9.42
2023-11-24T23:08:00.417Z,9.09
2023-11-24T23:10:28.435Z,9.19
2023-11-24T23:12:55.191Z,9.08
2023-11-24T23:15:21.831Z,9.02
2023-11-24T23:17:48.654Z,8.46
2023-11-24T23:20:15.599Z,9.32
2023-11-24T23:22:43.769Z,9.73
2023-11-24T23:25:14.107Z,8.89
2023-11-24T23:27:40.968Z,8.57
2023-11-24T23:30:09.439Z,8.93
2023-11-24T23:32:36.357Z,8.74
2023-11-24T23:35:03.052Z,8.58
2023-11-24T23:37:29.701Z,8.92
2023-11-24T23:39:56.444Z,8.45
2023-11-24T23:42:24.244Z,8.64
2023-11-24T23:44:51.086Z,8.38
2023-11-24T23:47:18.270Z,8.42
2023-11-24T23:49:44.923Z,7.81
2023-11-24T23:52:12.240Z,7.63
2023-11-24T23:54:40.506Z,7.19
2023-11-24T23:57:07.141Z,7.19
2023-11-24T23:59:33.728Z,7.88
